F/V J. Louis Vincent — FQBL — position and weather

sailwx.info

Track history (hours):
 
Tides and Currents Weather Stations Pressure Air Temp Water Temp Dewpoint Dewpoint Depression Visibility Wind Speed Wind Dir Waves Ship Positions

F/V J. Louis Vincent

Last reported at 2015-Mar-27 18:15 UTC. Time now 2015-Mar-30 01:07 UTC.
Position N 43°24' E 003°42'.

Length 29 m.

Type: Fishing. MMSI: 227146600.

Date/timePositionNaut miles runAvg speedWind from/ knotsBaromVisibWave heightAir tempDewpointWater temp
2015-Mar-27 18:15N 43°24' E 003°42'0 0.6
2015-Mar-27 17:33N 43°24' E 003°42'4 4.3
2015-Mar-27 16:33N 43°20' E 003°43'8 8.1
2015-Mar-27 15:33N 43°12' E 003°45'4 4.3
2015-Mar-27 14:33N 43°07' E 003°46'4 4.3
2015-Mar-27 13:34N 43°03' E 003°48'4 4.3
2015-Mar-27 12:33N 42°59' E 003°50'1 1.3
2015-Mar-27 11:34N 42°58' E 003°48'4 4.5
2015-Mar-27 10:33N 42°59' E 003°54'4 4.3
2015-Mar-27 09:33N 42°59' E 004°00'4 4.4
2015-Mar-27 08:33N 42°59' E 004°06'5 4.3
2015-Mar-27 07:26N 42°59' E 003°60'4 4.3
2015-Mar-27 06:33N 42°60' E 003°55'4 4.3
2015-Mar-27 05:31N 43°01' E 003°49'6 4.2
2015-Mar-27 04:10N 43°05' E 003°44'15 7.8
2015-Mar-27 02:12N 43°21' E 003°42'4 0.4
2015-Mar-26 17:26N 43°24' E 003°42'1 1.0
2015-Mar-26 16:07N 43°23' E 003°43'6 9.4
2015-Mar-26 15:31N 43°19' E 003°48'3 3.5
2015-Mar-26 14:33N 43°16' E 003°50'5 4.3
2015-Mar-26 13:30N 43°13' E 003°55'5 4.3
2015-Mar-26 12:27N 43°10' E 003°60'0 0.4
2015-Mar-26 11:33N 43°10' E 003°60'4 4.0
2015-Mar-26 10:32N 43°10' E 004°05'4 4.1
2015-Mar-26 09:32N 43°09' E 004°11'3 1.7
2015-Mar-26 07:30N 43°09' E 004°16'4 4.1
2015-Mar-26 06:29N 43°11' E 004°11'4 4.1
2015-Mar-26 05:29N 43°12' E 004°05'4 4.1
2015-Mar-26 04:24N 43°13' E 003°59'4 4.4
2015-Mar-26 03:29N 43°14' E 003°54'6 6.5
2015-Mar-26 02:29N 43°18' E 003°47'7 0.7
2015-Mar-25 17:05N 43°24' E 003°42'0 0.3
2015-Mar-25 16:14N 43°24' E 003°42'6 7.9
2015-Mar-25 15:26N 43°19' E 003°48'9 4.2
2015-Mar-25 13:23N 43°16' E 003°58'6 4.4
2015-Mar-25 12:07N 43°12' E 004°05'0 0.6
2015-Mar-25 11:29N 43°12' E 004°04'5 4.3
2015-Mar-25 10:20N 43°09' E 004°09'8 2.7
2015-Mar-25 07:29N 43°08' E 004°19'19 4.2
2015-Mar-25 03:06N 43°16' E 003°57'13 1.4
2015-Mar-24 17:34N 43°24' E 003°42'0 0.4
2015-Mar-24 16:31N 43°24' E 003°42'1210.5
2015-Mar-24 15:21N 43°19' E 003°58'1312.2
2015-Mar-24 14:18N 43°13' E 004°13'1112.5
2015-Mar-24 13:27N 43°07' E 004°25'11 8.8
2015-Mar-24 12:13N 43°02' E 004°38'5 4.3
2015-Mar-24 11:06N 43°02' E 004°45'8 4.4
2015-Mar-24 09:23N 43°02' E 004°55'12 4.0
2015-Mar-24 06:30N 43°03' E 004°39'4 4.2
2015-Mar-24 05:33N 43°04' E 004°34'43 3.7
2015-Mar-23 18:04N 43°24' E 003°42'1010.2
2015-Mar-23 17:07N 43°20' E 003°54'912.8
2015-Mar-23 16:24N 43°14' E 004°04'1012.2
2015-Mar-23 15:33N 43°08' E 004°16'1212.3
2015-Mar-23 14:33N 43°01' E 004°29'6 4.0
2015-Mar-23 13:08N 42°60' E 004°37'3 4.3
2015-Mar-23 12:28N 42°60' E 004°41'1 1.1
2015-Mar-23 11:20N 43°01' E 004°40'4 3.8
2015-Mar-23 10:19N 43°01' E 004°45'4 4.3
2015-Mar-23 09:23N 43°02' E 004°50'6 2.6
2015-Mar-23 07:06N 43°02' E 004°42'2 4.3
2015-Mar-23 06:31N 43°03' E 004°39'  
2015-Mar-20 17:22N 43°24' E 003°42'1010.6
2015-Mar-20 16:25N 43°20' E 003°55'1112.3
2015-Mar-20 15:33N 43°15' E 004°08'1413.0
2015-Mar-20 14:30N 43°08' E 004°24'1211.7
2015-Mar-20 13:27N 43°02' E 004°39'5 4.5
2015-Mar-20 12:25N 43°01' E 004°45'4 4.3
2015-Mar-20 11:33N 43°02' E 004°50'3 0.9
2015-Mar-20 08:16N 43°03' E 004°54'9 4.4
2015-Mar-20 06:15N 43°03' E 004°42'48 3.4
2015-Mar-19 16:05N 43°24' E 003°42'0 0.5
2015-Mar-19 15:25N 43°24' E 003°42'12 9.5
2015-Mar-19 14:12N 43°15' E 003°52'1112.3
2015-Mar-19 13:18N 43°06' E 004°02'911.8
2015-Mar-19 12:31N 42°59' E 004°10'6 5.4
2015-Mar-19 11:30N 42°56' E 004°16'3 3.6
2015-Mar-19 10:33N 42°53' E 004°19'6 4.3
2015-Mar-19 09:16N 42°48' E 004°17'5 1.6
2015-Mar-19 06:20N 42°52' E 004°15'32 8.4
2015-Mar-19 02:31N 43°18' E 003°49'8 0.8
2015-Mar-18 17:26N 43°24' E 003°42'2 1.8
2015-Mar-18 16:32N 43°24' E 003°44'2 1.8
2015-Mar-18 15:26N 43°22' E 003°43'35 8.5
2015-Mar-18 11:20N 42°53' E 004°10'3 4.2
2015-Mar-18 10:32N 42°53' E 004°14'4 4.1
2015-Mar-18 09:32N 42°49' E 004°17'3 2.4
2015-Mar-18 08:24N 42°47' E 004°16'2 2.3
2015-Mar-18 07:23N 42°49' E 004°17'4 4.2
2015-Mar-18 06:20N 42°53' E 004°16'21 7.6
2015-Mar-18 03:33N 43°10' E 003°59'1111.4
2015-Mar-18 02:34N 43°19' E 003°48'  
Track history (hours):
 
Tides and Currents Weather Stations Pressure Air Temp Water Temp Dewpoint Dewpoint Depression Visibility Wind Speed Wind Dir Waves Ship Positions

F/V J. Louis Vincent

Last reported at 2015-Mar-27 18:15 UTC. Time now 2015-Mar-30 01:07 UTC.
Position N 43°24' E 003°42'.

Length 29 m.

Type: Fishing. MMSI: 227146600.

Date/timePositionNaut miles runAvg speedWind from/ knotsBaromVisibWave heightAir tempDewpointWater temp
2015-Mar-27 18:15N 43°24' E 003°42'0 0.6
2015-Mar-27 17:33N 43°24' E 003°42'4 4.3
2015-Mar-27 16:33N 43°20' E 003°43'8 8.1
2015-Mar-27 15:33N 43°12' E 003°45'4 4.3
2015-Mar-27 14:33N 43°07' E 003°46'4 4.3
2015-Mar-27 13:34N 43°03' E 003°48'4 4.3
2015-Mar-27 12:33N 42°59' E 003°50'1 1.3
2015-Mar-27 11:34N 42°58' E 003°48'4 4.5
2015-Mar-27 10:33N 42°59' E 003°54'4 4.3
2015-Mar-27 09:33N 42°59' E 004°00'4 4.4
2015-Mar-27 08:33N 42°59' E 004°06'5 4.3
2015-Mar-27 07:26N 42°59' E 003°60'4 4.3
2015-Mar-27 06:33N 42°60' E 003°55'4 4.3
2015-Mar-27 05:31N 43°01' E 003°49'6 4.2
2015-Mar-27 04:10N 43°05' E 003°44'15 7.8
2015-Mar-27 02:12N 43°21' E 003°42'4 0.4
2015-Mar-26 17:26N 43°24' E 003°42'1 1.0
2015-Mar-26 16:07N 43°23' E 003°43'6 9.4
2015-Mar-26 15:31N 43°19' E 003°48'3 3.5
2015-Mar-26 14:33N 43°16' E 003°50'5 4.3
2015-Mar-26 13:30N 43°13' E 003°55'5 4.3
2015-Mar-26 12:27N 43°10' E 003°60'0 0.4
2015-Mar-26 11:33N 43°10' E 003°60'4 4.0
2015-Mar-26 10:32N 43°10' E 004°05'4 4.1
2015-Mar-26 09:32N 43°09' E 004°11'3 1.7
2015-Mar-26 07:30N 43°09' E 004°16'4 4.1
2015-Mar-26 06:29N 43°11' E 004°11'4 4.1
2015-Mar-26 05:29N 43°12' E 004°05'4 4.1
2015-Mar-26 04:24N 43°13' E 003°59'4 4.4
2015-Mar-26 03:29N 43°14' E 003°54'6 6.5
2015-Mar-26 02:29N 43°18' E 003°47'7 0.7
2015-Mar-25 17:05N 43°24' E 003°42'0 0.3
2015-Mar-25 16:14N 43°24' E 003°42'6 7.9
2015-Mar-25 15:26N 43°19' E 003°48'9 4.2
2015-Mar-25 13:23N 43°16' E 003°58'6 4.4
2015-Mar-25 12:07N 43°12' E 004°05'0 0.6
2015-Mar-25 11:29N 43°12' E 004°04'5 4.3
2015-Mar-25 10:20N 43°09' E 004°09'8 2.7
2015-Mar-25 07:29N 43°08' E 004°19'19 4.2
2015-Mar-25 03:06N 43°16' E 003°57'13 1.4
2015-Mar-24 17:34N 43°24' E 003°42'0 0.4
2015-Mar-24 16:31N 43°24' E 003°42'1210.5
2015-Mar-24 15:21N 43°19' E 003°58'1312.2
2015-Mar-24 14:18N 43°13' E 004°13'1112.5
2015-Mar-24 13:27N 43°07' E 004°25'11 8.8
2015-Mar-24 12:13N 43°02' E 004°38'5 4.3
2015-Mar-24 11:06N 43°02' E 004°45'8 4.4
2015-Mar-24 09:23N 43°02' E 004°55'12 4.0
2015-Mar-24 06:30N 43°03' E 004°39'4 4.2
2015-Mar-24 05:33N 43°04' E 004°34'43 3.7
2015-Mar-23 18:04N 43°24' E 003°42'1010.2
2015-Mar-23 17:07N 43°20' E 003°54'912.8
2015-Mar-23 16:24N 43°14' E 004°04'1012.2
2015-Mar-23 15:33N 43°08' E 004°16'1212.3
2015-Mar-23 14:33N 43°01' E 004°29'6 4.0
2015-Mar-23 13:08N 42°60' E 004°37'3 4.3
2015-Mar-23 12:28N 42°60' E 004°41'1 1.1
2015-Mar-23 11:20N 43°01' E 004°40'4 3.8
2015-Mar-23 10:19N 43°01' E 004°45'4 4.3
2015-Mar-23 09:23N 43°02' E 004°50'6 2.6
2015-Mar-23 07:06N 43°02' E 004°42'2 4.3
2015-Mar-23 06:31N 43°03' E 004°39'  
2015-Mar-20 17:22N 43°24' E 003°42'1010.6
2015-Mar-20 16:25N 43°20' E 003°55'1112.3
2015-Mar-20 15:33N 43°15' E 004°08'1413.0
2015-Mar-20 14:30N 43°08' E 004°24'1211.7
2015-Mar-20 13:27N 43°02' E 004°39'5 4.5
2015-Mar-20 12:25N 43°01' E 004°45'4 4.3
2015-Mar-20 11:33N 43°02' E 004°50'3 0.9
2015-Mar-20 08:16N 43°03' E 004°54'9 4.4
2015-Mar-20 06:15N 43°03' E 004°42'48 3.4
2015-Mar-19 16:05N 43°24' E 003°42'0 0.5
2015-Mar-19 15:25N 43°24' E 003°42'12 9.5
2015-Mar-19 14:12N 43°15' E 003°52'1112.3
2015-Mar-19 13:18N 43°06' E 004°02'911.8
2015-Mar-19 12:31N 42°59' E 004°10'6 5.4
2015-Mar-19 11:30N 42°56' E 004°16'3 3.6
2015-Mar-19 10:33N 42°53' E 004°19'6 4.3
2015-Mar-19 09:16N 42°48' E 004°17'5 1.6
2015-Mar-19 06:20N 42°52' E 004°15'32 8.4
2015-Mar-19 02:31N 43°18' E 003°49'8 0.8
2015-Mar-18 17:26N 43°24' E 003°42'2 1.8
2015-Mar-18 16:32N 43°24' E 003°44'2 1.8
2015-Mar-18 15:26N 43°22' E 003°43'35 8.5
2015-Mar-18 11:20N 42°53' E 004°10'3 4.2
2015-Mar-18 10:32N 42°53' E 004°14'4 4.1
2015-Mar-18 09:32N 42°49' E 004°17'3 2.4
2015-Mar-18 08:24N 42°47' E 004°16'2 2.3
2015-Mar-18 07:23N 42°49' E 004°17'4 4.2
2015-Mar-18 06:20N 42°53' E 004°16'21 7.6
2015-Mar-18 03:33N 43°10' E 003°59'1111.4
2015-Mar-18 02:34N 43°19' E 003°48'  

Dump ship's entire track history